Time;durP1;ratioP1;P1;durP2;ratioP2;P2;SDS_P1;SDS_P2;PMS_P1;PMS_P2;Temp;Humidity;BMP_temperature;BMP_pressure;BME280_temperature;BME280_humidity;BME280_pressure;Samples;Min_cycle;Max_cycle;Signal;HPM_P1;HPM_P2
2022/01/09 00:00:13;;;;;;;13.98;11.57;;;5.00;99.90;;;;;;5034298;28;20068;-79
2022/01/09 00:02:39;;;;;;;13.20;11.27;;;4.90;99.90;;;;;;5029993;28;20036;-79
2022/01/09 00:05:07;;;;;;;14.40;12.25;;;4.90;99.90;;;;;;5056513;28;20442;-79
2022/01/09 00:07:32;;;;;;;13.45;11.75;;;4.90;99.90;;;;;;5054801;28;20056;-79
2022/01/09 00:09:58;;;;;;;15.73;12.55;;;4.90;99.90;;;;;;5037307;28;20045;-78
2022/01/09 00:12:25;;;;;;;14.90;12.18;;;5.00;99.90;;;;;;5036757;28;20128;-79
2022/01/09 00:14:51;;;;;;;14.38;11.50;;;4.90;99.90;;;;;;5038646;28;20122;-79
2022/01/09 00:17:17;;;;;;;13.10;11.23;;;5.00;99.90;;;;;;5051893;28;20483;-79
2022/01/09 00:19:42;;;;;;;17.52;12.88;;;4.90;99.90;;;;;;5053589;28;20331;-79
2022/01/09 00:22:08;;;;;;;13.52;11.55;;;5.00;99.90;;;;;;5053546;28;20033;-79
2022/01/09 00:24:34;;;;;;;9.40;7.97;;;5.00;99.90;;;;;;5053595;28;20043;-79
2022/01/09 00:26:59;;;;;;;14.65;12.40;;;5.00;99.90;;;;;;5040960;28;20208;-79
2022/01/09 00:29:25;;;;;;;13.60;11.20;;;5.00;99.90;;;;;;5053594;28;20041;-79
2022/01/09 00:31:51;;;;;;;13.50;11.68;;;5.00;99.90;;;;;;5032372;28;20040;-79
2022/01/09 00:34:16;;;;;;;14.60;11.82;;;4.90;99.90;;;;;;5056038;28;20487;-79
2022/01/09 00:36:42;;;;;;;16.00;12.75;;;5.00;99.90;;;;;;5033729;28;20554;-79
2022/01/09 00:39:08;;;;;;;13.95;11.70;;;5.00;99.90;;;;;;5030333;28;20053;-79
2022/01/09 00:41:33;;;;;;;15.82;13.38;;;5.00;99.90;;;;;;5030094;28;20075;-79
2022/01/09 00:43:59;;;;;;;16.33;12.93;;;5.00;99.90;;;;;;5050293;28;20499;-79
2022/01/09 00:46:25;;;;;;;15.65;12.27;;;5.00;99.90;;;;;;5037665;28;20143;-79
2022/01/09 00:48:51;;;;;;;15.93;13.48;;;5.00;99.90;;;;;;5037792;28;20471;-79
2022/01/09 00:51:16;;;;;;;15.80;12.80;;;5.00;99.90;;;;;;5031689;28;20037;-79
2022/01/09 00:53:42;;;;;;;16.48;13.43;;;5.00;99.90;;;;;;5043119;28;20040;-79
2022/01/09 00:56:08;;;;;;;15.70;12.50;;;5.00;99.90;;;;;;5054558;28;20190;-79
2022/01/09 00:58:33;;;;;;;17.10;13.38;;;5.00;99.90;;;;;;5055602;28;20323;-79
2022/01/09 01:00:59;;;;;;;17.02;13.13;;;5.00;99.90;;;;;;5030488;28;20148;-79
2022/01/09 01:03:25;;;;;;;15.93;13.45;;;5.00;99.90;;;;;;5038321;28;20431;-79
2022/01/09 01:05:51;;;;;;;17.95;13.70;;;5.00;99.90;;;;;;5057047;28;20316;-79
2022/01/09 01:08:18;;;;;;;16.73;13.85;;;5.00;99.90;;;;;;5041852;28;20040;-79
2022/01/09 01:10:43;;;;;;;17.77;14.43;;;5.00;99.90;;;;;;5052393;28;20148;-79
2022/01/09 01:13:09;;;;;;;19.08;13.95;;;5.00;99.90;;;;;;5035305;28;20104;-79
2022/01/09 01:15:35;;;;;;;18.48;14.65;;;5.00;99.90;;;;;;5055871;28;20033;-79
2022/01/09 01:18:01;;;;;;;17.00;14.15;;;5.00;99.90;;;;;;5034501;28;20044;-79
2022/01/09 01:20:29;;;;;;;18.35;14.32;;;5.00;99.90;;;;;;5041598;28;20372;-79
2022/01/09 01:22:58;;;;;;;16.20;13.60;;;5.10;99.90;;;;;;5057444;28;20873;-79
2022/01/09 01:25:26;;;;;;;17.90;14.57;;;5.10;99.90;;;;;;5052834;28;20062;-79
2022/01/09 01:27:52;;;;;;;17.95;14.85;;;5.00;99.90;;;;;;5040521;28;20044;-79
2022/01/09 01:30:18;;;;;;;17.52;14.25;;;5.10;99.90;;;;;;5055511;28;20043;-79
2022/01/09 01:32:44;;;;;;;19.05;14.70;;;5.10;99.90;;;;;;5054545;28;20039;-79
2022/01/09 01:35:12;;;;;;;19.45;15.15;;;5.00;99.90;;;;;;5057062;28;20274;-79
2022/01/09 01:37:41;;;;;;;20.00;15.38;;;5.00;99.90;;;;;;5053368;28;20072;-79
2022/01/09 01:40:09;;;;;;;19.73;15.30;;;5.00;99.90;;;;;;5052367;28;20072;-79
2022/01/09 01:42:35;;;;;;;20.45;16.50;;;5.00;99.90;;;;;;5058345;28;20028;-79
2022/01/09 01:45:02;;;;;;;18.85;15.10;;;5.00;99.90;;;;;;5017815;28;20045;-79
2022/01/09 01:47:28;;;;;;;19.10;14.18;;;5.10;99.90;;;;;;5051279;28;20056;-79
2022/01/09 01:49:53;;;;;;;19.98;15.35;;;5.10;99.90;;;;;;5055277;28;20040;-79
2022/01/09 01:52:25;;;;;;;19.67;14.73;;;5.10;99.90;;;;;;5054843;28;20036;-79
2022/01/09 01:54:50;;;;;;;18.75;15.07;;;5.10;99.90;;;;;;5051610;28;20115;-79
2022/01/09 01:57:17;;;;;;;20.58;15.43;;;5.10;99.90;;;;;;5037151;28;20056;-79
2022/01/09 01:59:42;;;;;;;20.50;15.73;;;5.10;99.90;;;;;;5049264;28;20052;-79
2022/01/09 02:02:08;;;;;;;21.10;15.27;;;5.20;99.90;;;;;;5058138;28;20040;-79
2022/01/09 02:04:34;;;;;;;22.00;14.98;;;5.10;99.90;;;;;;5055255;28;20246;-79
2022/01/09 02:07:02;;;;;;;19.67;15.60;;;5.10;99.90;;;;;;5040170;28;20749;-79
2022/01/09 02:09:28;;;;;;;17.58;14.57;;;5.10;99.90;;;;;;5034032;28;20581;-79
2022/01/09 02:11:53;;;;;;;23.33;16.00;;;5.10;99.90;;;;;;5024493;28;20464;-79
2022/01/09 02:14:19;;;;;;;18.85;14.23;;;5.10;99.90;;;;;;5050040;28;20032;-79
2022/01/09 02:16:48;;;;;;;22.35;16.20;;;5.10;99.90;;;;;;5037234;28;20088;-79
2022/01/09 02:19:15;;;;;;;20.38;15.77;;;5.20;99.90;;;;;;5034948;28;20372;-79
2022/01/09 02:21:43;;;;;;;20.05;15.25;;;5.20;99.90;;;;;;5051913;28;20067;-79
2022/01/09 02:24:09;;;;;;;21.63;14.75;;;5.20;99.90;;;;;;5050845;28;20029;-79
2022/01/09 02:26:34;;;;;;;20.08;15.75;;;5.20;99.90;;;;;;5037724;28;20507;-79
2022/01/09 02:29:00;;;;;;;18.85;15.02;;;5.20;99.90;;;;;;5033352;28;20107;-78
2022/01/09 02:31:26;;;;;;;20.20;15.27;;;5.30;99.90;;;;;;5030538;28;20040;-79
2022/01/09 02:33:51;;;;;;;19.75;14.95;;;5.30;99.90;;;;;;5055598;28;20148;-79
2022/01/09 02:36:17;;;;;;;19.80;14.57;;;5.30;99.90;;;;;;5033723;28;20029;-79
2022/01/09 02:38:43;;;;;;;21.63;15.57;;;5.30;99.90;;;;;;5048362;28;20598;-79
2022/01/09 02:41:08;;;;;;;19.20;14.45;;;5.40;99.90;;;;;;5036195;28;20434;-79
2022/01/09 02:43:34;;;;;;;21.90;14.93;;;5.40;99.90;;;;;;5024390;28;20053;-79
2022/01/09 02:46:11;;;;;;;19.80;13.63;;;5.40;99.90;;;;;;5029545;28;20705;-78
2022/01/09 02:48:39;;;;;;;18.95;13.18;;;5.40;99.90;;;;;;5033029;28;20075;-79
2022/01/09 02:51:14;;;;;;;18.90;13.98;;;5.50;99.90;;;;;;5050454;28;20474;-79
2022/01/09 02:53:44;;;;;;;20.50;14.25;;;5.50;99.90;;;;;;5051680;28;20132;-79
2022/01/09 02:56:10;;;;;;;21.20;14.50;;;5.50;99.90;;;;;;5049963;28;20076;-79
2022/01/09 02:58:37;;;;;;;21.75;14.50;;;5.50;99.90;;;;;;5016042;28;20155;-79
2022/01/09 03:01:08;;;;;;;20.65;13.77;;;5.50;99.90;;;;;;5050314;28;20051;-79
2022/01/09 03:03:34;;;;;;;20.60;13.25;;;5.60;99.90;;;;;;5054005;28;20044;-79
2022/01/09 03:06:00;;;;;;;17.75;11.23;;;5.60;99.90;;;;;;5032260;28;20028;-79
2022/01/09 03:08:26;;;;;;;20.75;13.07;;;5.60;99.90;;;;;;5038959;28;20048;-79
2022/01/09 03:10:52;;;;;;;19.10;12.27;;;5.70;99.90;;;;;;5054027;28;20055;-79
2022/01/09 03:13:18;;;;;;;19.10;12.13;;;5.70;99.90;;;;;;5019680;28;20033;-79
2022/01/09 03:15:43;;;;;;;20.98;11.27;;;5.80;99.90;;;;;;5051627;28;20433;-79
2022/01/09 03:18:10;;;;;;;23.10;12.13;;;5.90;99.90;;;;;;5057011;28;20123;-79
2022/01/09 03:20:36;;;;;;;15.48;10.02;;;5.80;99.90;;;;;;5051440;28;20147;-79
2022/01/09 03:23:02;;;;;;;20.48;9.85;;;5.90;99.90;;;;;;5047945;28;20029;-79
2022/01/09 03:25:28;;;;;;;21.70;8.80;;;6.00;99.90;;;;;;5033106;28;20494;-79
2022/01/09 03:27:55;;;;;;;17.58;7.90;;;6.00;99.90;;;;;;5051135;28;20036;-79
2022/01/09 03:30:23;;;;;;;19.23;6.88;;;6.10;99.90;;;;;;5030531;28;20452;-78
2022/01/09 03:32:50;;;;;;;23.98;7.45;;;6.20;99.90;;;;;;5047112;28;20440;-79
2022/01/09 03:35:19;;;;;;;20.80;6.07;;;6.20;99.90;;;;;;5036615;28;20052;-78
2022/01/09 03:37:46;;;;;;;24.35;6.00;;;6.20;99.90;;;;;;5052766;28;20487;-79
2022/01/09 03:40:18;;;;;;;24.60;6.57;;;6.30;99.90;;;;;;5049745;28;20075;-79
2022/01/09 03:42:45;;;;;;;19.75;5.53;;;6.40;99.90;;;;;;5033184;28;20037;-79
2022/01/09 03:45:11;;;;;;;19.67;5.30;;;6.40;99.90;;;;;;5048736;28;20180;-79
2022/01/09 03:47:37;;;;;;;20.08;4.60;;;6.40;99.90;;;;;;5038184;28;20032;-78
2022/01/09 03:50:05;;;;;;;27.67;5.65;;;6.60;99.90;;;;;;5049208;28;20387;-79
2022/01/09 03:52:30;;;;;;;23.80;4.82;;;6.70;99.90;;;;;;5046895;28;20045;-79
2022/01/09 03:54:56;;;;;;;32.97;5.35;;;6.70;99.90;;;;;;5013665;28;20029;-79
2022/01/09 03:57:22;;;;;;;27.38;5.35;;;6.70;99.90;;;;;;5055091;28;20049;-79
2022/01/09 03:59:48;;;;;;;31.42;5.72;;;6.80;99.90;;;;;;5051276;28;20072;-79
2022/01/09 04:02:14;;;;;;;35.85;6.03;;;6.80;99.90;;;;;;5034113;28;20135;-79
2022/01/09 04:04:39;;;;;;;39.05;6.22;;;6.80;99.90;;;;;;5054685;28;20033;-79
2022/01/09 04:07:05;;;;;;;29.20;5.35;;;6.80;99.90;;;;;;5055983;28;20380;-78
2022/01/09 04:09:39;;;;;;;36.80;5.43;;;6.90;99.90;;;;;;5055016;28;20121;-79
2022/01/09 04:12:17;;;;;;;31.23;6.15;;;6.90;99.90;;;;;;5041205;28;20056;-79
2022/01/09 04:14:45;;;;;;;33.63;6.20;;;6.90;99.90;;;;;;5015222;28;20045;-79
2022/01/09 04:17:17;;;;;;;35.55;6.68;;;7.00;99.90;;;;;;5034448;28;20389;-79
2022/01/09 04:19:43;;;;;;;31.10;5.15;;;7.00;99.90;;;;;;5032553;28;20211;-79
2022/01/09 04:22:09;;;;;;;40.90;6.43;;;7.00;99.90;;;;;;5056037;28;20036;-79
2022/01/09 04:24:35;;;;;;;35.88;4.95;;;7.10;99.90;;;;;;5055556;28;20757;-79
2022/01/09 04:27:02;;;;;;;36.58;5.55;;;7.10;99.90;;;;;;5052577;28;20531;-79
2022/01/09 04:29:27;;;;;;;36.90;5.68;;;7.00;99.90;;;;;;5050457;28;20056;-78
2022/01/09 04:31:53;;;;;;;28.88;5.00;;;7.00;99.90;;;;;;5051558;28;20050;-79
2022/01/09 04:34:19;;;;;;;19.77;4.18;;;7.00;99.90;;;;;;5050568;28;20078;-79
2022/01/09 04:36:45;;;;;;;27.85;4.90;;;7.00;99.90;;;;;;5031013;28;20040;-79
2022/01/09 04:39:10;;;;;;;31.02;5.72;;;7.00;99.90;;;;;;5031458;28;20041;-78
2022/01/09 04:41:36;;;;;;;35.35;6.28;;;6.90;99.90;;;;;;5034943;28;20501;-79
2022/01/09 04:44:04;;;;;;;25.23;4.63;;;6.90;99.90;;;;;;5033353;28;20096;-79
2022/01/09 04:46:40;;;;;;;27.38;4.60;;;6.90;99.90;;;;;;5032488;28;20048;-79
2022/01/09 04:49:06;;;;;;;23.08;4.93;;;6.90;99.90;;;;;;5032014;28;20492;-79
2022/01/09 04:51:32;;;;;;;29.80;5.00;;;6.90;99.90;;;;;;5015608;28;20033;-79
2022/01/09 04:53:57;;;;;;;28.65;5.03;;;6.80;99.90;;;;;;5032740;28;20041;-79
2022/01/09 04:56:23;;;;;;;24.98;4.35;;;6.80;99.90;;;;;;5030542;28;20488;-79
2022/01/09 04:58:49;;;;;;;26.75;4.85;;;6.80;99.90;;;;;;5033519;28;20111;-79
2022/01/09 05:01:14;;;;;;;28.55;4.13;;;6.80;99.90;;;;;;5032580;28;20024;-79
2022/01/09 05:03:40;;;;;;;25.73;5.15;;;6.80;99.90;;;;;;5055376;28;20049;-79
2022/01/09 05:06:06;;;;;;;29.67;3.78;;;6.80;99.90;;;;;;5038063;28;20075;-79
2022/01/09 05:08:32;;;;;;;23.70;4.05;;;6.80;99.90;;;;;;5038231;28;20087;-79
2022/01/09 05:10:57;;;;;;;26.95;4.65;;;6.80;99.90;;;;;;5035795;28;20090;-79
2022/01/09 05:13:23;;;;;;;29.88;4.05;;;6.80;99.90;;;;;;5034435;28;20555;-79
2022/01/09 05:15:49;;;;;;;20.45;4.88;;;6.80;99.90;;;;;;5033567;28;20026;-79
2022/01/09 05:18:15;;;;;;;32.50;5.45;;;6.70;99.90;;;;;;5033462;28;20044;-79
2022/01/09 05:20:42;;;;;;;23.60;4.30;;;6.70;99.90;;;;;;5051031;28;20048;-79
2022/01/09 05:23:11;;;;;;;25.50;4.57;;;6.70;99.90;;;;;;5027897;28;20037;-79
2022/01/09 05:25:36;;;;;;;24.02;4.15;;;6.70;99.90;;;;;;5012310;28;20029;-79
2022/01/09 05:28:02;;;;;;;26.63;4.00;;;6.70;99.90;;;;;;5034050;28;20036;-79
2022/01/09 05:30:28;;;;;;;23.23;4.35;;;6.70;99.90;;;;;;5034231;28;20134;-79
2022/01/09 05:32:53;;;;;;;23.77;4.10;;;6.60;99.90;;;;;;5034440;28;20041;-79
2022/01/09 05:35:19;;;;;;;24.40;3.47;;;6.60;99.90;;;;;;5032575;28;20045;-79
2022/01/09 05:37:45;;;;;;;24.75;4.15;;;6.60;99.90;;;;;;5048612;28;20046;-79
2022/01/09 05:40:11;;;;;;;18.63;4.30;;;6.60;99.90;;;;;;5015378;28;20044;-79
2022/01/09 05:42:37;;;;;;;21.15;3.63;;;6.60;99.90;;;;;;5016697;28;20168;-79
2022/01/09 05:45:05;;;;;;;23.02;4.20;;;6.60;99.90;;;;;;5010194;28;20047;-79
2022/01/09 05:47:30;;;;;;;27.02;3.42;;;6.60;99.90;;;;;;5007696;28;21109;-79
2022/01/09 05:49:56;;;;;;;16.08;3.03;;;6.50;99.90;;;;;;5007276;28;20034;-79
2022/01/09 05:52:21;;;;;;;24.08;3.95;;;6.50;99.90;;;;;;5016810;28;20282;-79
2022/01/09 05:54:48;;;;;;;18.67;3.13;;;6.50;99.90;;;;;;5008586;28;20045;-79
2022/01/09 05:57:14;;;;;;;23.85;3.67;;;6.40;99.90;;;;;;5024536;28;20045;-79
2022/01/09 05:59:42;;;;;;;22.85;4.57;;;6.40;99.90;;;;;;5008883;28;20048;-79
2022/01/09 06:02:08;;;;;;;20.88;3.53;;;6.40;99.90;;;;;;5013133;28;20454;-79
2022/01/09 06:04:33;;;;;;;20.77;3.70;;;6.40;99.90;;;;;;5012088;28;20117;-79
2022/01/09 06:06:59;;;;;;;19.08;3.47;;;6.40;99.90;;;;;;5009817;28;20053;-78
2022/01/09 06:09:25;;;;;;;21.60;3.38;;;6.40;99.90;;;;;;4990330;28;20045;-78
2022/01/09 06:11:50;;;;;;;19.23;3.92;;;6.40;99.90;;;;;;5009613;28;20037;-79
2022/01/09 06:14:17;;;;;;;15.13;3.40;;;6.40;99.90;;;;;;5010813;28;20049;-79
2022/01/09 06:16:42;;;;;;;19.33;3.70;;;6.50;99.90;;;;;;5005102;28;20128;-79
2022/01/09 06:19:10;;;;;;;21.70;3.53;;;6.40;99.90;;;;;;4997868;28;20043;-79
2022/01/09 06:21:36;;;;;;;18.15;3.05;;;6.30;99.90;;;;;;5012822;28;20045;-79
2022/01/09 06:24:02;;;;;;;15.80;3.05;;;6.30;99.90;;;;;;5012348;28;20045;-79
2022/01/09 06:26:28;;;;;;;22.95;2.75;;;6.30;99.90;;;;;;5011090;28;20878;-79
2022/01/09 06:28:53;;;;;;;16.80;3.65;;;6.30;99.90;;;;;;5006989;28;20033;-79
2022/01/09 06:31:19;;;;;;;19.05;3.58;;;6.20;99.90;;;;;;5010279;28;20034;-79
2022/01/09 06:33:45;;;;;;;23.05;3.75;;;6.30;99.90;;;;;;5010241;28;20037;-79
2022/01/09 06:36:10;;;;;;;13.02;2.83;;;6.30;99.90;;;;;;5012727;28;20037;-79
2022/01/09 06:38:37;;;;;;;15.52;3.55;;;6.20;99.90;;;;;;5004908;28;20708;-79
2022/01/09 06:41:03;;;;;;;17.40;3.35;;;6.20;99.90;;;;;;5029233;28;21016;-79
2022/01/09 06:43:29;;;;;;;22.23;3.47;;;6.20;99.90;;;;;;5038084;28;20363;-79
2022/01/09 06:45:55;;;;;;;17.80;3.33;;;6.10;99.90;;;;;;5028294;28;20369;-79
2022/01/09 06:48:20;;;;;;;21.33;4.30;;;6.10;99.90;;;;;;5029209;28;20052;-79
2022/01/09 06:50:46;;;;;;;19.90;3.75;;;6.00;99.90;;;;;;5029220;28;20049;-79
2022/01/09 06:53:12;;;;;;;21.23;4.72;;;6.10;99.90;;;;;;5050354;28;20041;-79
2022/01/09 06:55:37;;;;;;;22.00;3.72;;;6.10;99.90;;;;;;5029277;28;20056;-79
2022/01/09 06:58:03;;;;;;;15.60;3.15;;;6.00;99.90;;;;;;5026827;28;20595;-79
2022/01/09 07:00:29;;;;;;;16.20;3.17;;;6.00;99.90;;;;;;5027819;28;20138;-79
2022/01/09 07:02:54;;;;;;;22.55;3.65;;;6.00;99.90;;;;;;5025971;28;20393;-79
2022/01/09 07:05:20;;;;;;;20.80;3.97;;;6.00;99.90;;;;;;5030389;28;20159;-79
2022/01/09 07:07:45;;;;;;;18.08;3.65;;;6.00;99.90;;;;;;5033010;28;20540;-79
2022/01/09 07:10:12;;;;;;;20.95;4.15;;;6.00;99.90;;;;;;5029005;28;20120;-79
2022/01/09 07:12:38;;;;;;;20.80;2.95;;;6.00;99.90;;;;;;5034008;28;20049;-79
2022/01/09 07:15:04;;;;;;;19.98;3.30;;;6.00;99.90;;;;;;5048890;28;20430;-79
2022/01/09 07:17:31;;;;;;;26.50;4.22;;;6.00;99.90;;;;;;5008153;28;20085;-79
2022/01/09 07:19:56;;;;;;;15.75;2.85;;;6.00;99.90;;;;;;5033316;28;20056;-79
2022/01/09 07:22:22;;;;;;;20.15;3.95;;;6.00;99.90;;;;;;5028130;28;20510;-79
2022/01/09 07:24:47;;;;;;;18.95;3.60;;;6.00;99.90;;;;;;5029476;28;20040;-79
2022/01/09 07:27:13;;;;;;;18.50;3.13;;;6.00;99.90;;;;;;5050060;28;20510;-78
2022/01/09 07:29:39;;;;;;;19.25;3.30;;;6.00;99.90;;;;;;5031816;28;20067;-79
2022/01/09 07:32:05;;;;;;;19.23;3.25;;;6.00;99.90;;;;;;5027543;28;20033;-79
2022/01/09 07:34:30;;;;;;;22.25;3.33;;;5.90;99.90;;;;;;5012567;28;20415;-79
2022/01/09 07:36:56;;;;;;;20.88;3.13;;;5.90;99.90;;;;;;5029229;28;20041;-79
2022/01/09 07:39:22;;;;;;;17.02;3.00;;;5.90;99.90;;;;;;5028926;28;20092;-79
2022/01/09 07:41:48;;;;;;;14.98;2.97;;;5.80;99.90;;;;;;5009282;28;20080;-78
2022/01/09 07:44:14;;;;;;;16.77;3.35;;;5.80;99.90;;;;;;5027117;28;20089;-79
2022/01/09 07:46:40;;;;;;;21.42;3.58;;;5.70;99.90;;;;;;5031996;28;20147;-79
2022/01/09 07:49:05;;;;;;;13.23;2.65;;;5.70;99.90;;;;;;5031980;28;20113;-78
2022/01/09 07:51:31;;;;;;;17.83;3.17;;;5.60;99.90;;;;;;5031937;28;20129;-79
2022/01/09 07:53:57;;;;;;;17.65;3.03;;;5.70;99.90;;;;;;5028262;28;20132;-79
2022/01/09 07:56:22;;;;;;;17.17;2.67;;;5.60;99.90;;;;;;5031469;28;20073;-79
2022/01/09 07:58:48;;;;;;;16.73;2.88;;;5.60;99.90;;;;;;5030002;28;20067;-79
2022/01/09 08:01:14;;;;;;;14.45;2.55;;;5.50;99.90;;;;;;5053501;28;20048;-79
2022/01/09 08:03:40;;;;;;;11.65;2.33;;;5.50;99.90;;;;;;5043123;28;20548;-78
2022/01/09 08:06:05;;;;;;;13.18;2.45;;;5.50;99.90;;;;;;5032637;28;20037;-79
2022/01/09 08:08:31;;;;;;;9.00;2.45;;;5.50;99.90;;;;;;5033309;28;20052;-79
2022/01/09 08:10:56;;;;;;;9.70;2.30;;;5.50;99.90;;;;;;5029013;28;20043;-78
2022/01/09 08:13:22;;;;;;;13.18;2.95;;;5.40;99.90;;;;;;5050646;28;20045;-78
2022/01/09 08:15:48;;;;;;;13.82;2.40;;;5.40;99.90;;;;;;5017520;28;20141;-78
2022/01/09 08:18:14;;;;;;;9.48;2.28;;;5.50;99.90;;;;;;5029214;28;20512;-79
2022/01/09 08:20:40;;;;;;;8.57;1.88;;;5.40;99.90;;;;;;5034660;28;20037;-79
2022/01/09 08:23:06;;;;;;;12.65;2.53;;;5.50;99.90;;;;;;5033005;28;20294;-79
2022/01/09 08:25:32;;;;;;;13.50;2.33;;;5.40;99.90;;;;;;5034616;28;20492;-79
2022/01/09 08:27:57;;;;;;;13.57;2.50;;;5.50;99.90;;;;;;5039849;28;20048;-79
2022/01/09 08:30:23;;;;;;;9.48;1.80;;;5.50;99.90;;;;;;5040610;28;20143;-79
2022/01/09 08:32:52;;;;;;;7.35;1.98;;;5.60;99.90;;;;;;5033891;28;20526;-79
2022/01/09 08:35:18;;;;;;;10.70;2.22;;;5.50;99.90;;;;;;5054345;28;20492;-79
2022/01/09 08:37:44;;;;;;;9.90;2.08;;;5.50;99.90;;;;;;5046562;28;20056;-79
2022/01/09 08:40:13;;;;;;;13.07;2.00;;;5.50;99.90;;;;;;5039315;28;20124;-79
2022/01/09 08:42:40;;;;;;;10.20;2.03;;;5.50;99.90;;;;;;5034496;28;20078;-78
2022/01/09 08:45:07;;;;;;;7.95;2.15;;;5.50;99.90;;;;;;5032145;28;20082;-79
2022/01/09 08:47:36;;;;;;;8.30;1.48;;;5.50;99.90;;;;;;5036696;28;20044;-79
2022/01/09 08:50:05;;;;;;;9.70;1.88;;;5.50;99.90;;;;;;5037326;28;20098;-79
2022/01/09 08:52:30;;;;;;;13.95;2.72;;;5.60;99.90;;;;;;5054938;28;20041;-79
2022/01/09 08:54:56;;;;;;;8.77;1.90;;;5.60;99.90;;;;;;5027114;28;20049;-79
2022/01/09 08:57:24;;;;;;;8.25;1.77;;;5.60;99.90;;;;;;5033820;28;20286;-79
2022/01/09 08:59:49;;;;;;;7.70;2.00;;;5.60;99.90;;;;;;5035910;28;20063;-79
2022/01/09 09:02:15;;;;;;;15.07;2.67;;;5.50;99.90;;;;;;5029490;28;20037;-79
2022/01/09 09:04:41;;;;;;;10.32;1.75;;;5.50;99.90;;;;;;5046700;28;20040;-79
2022/01/09 09:07:06;;;;;;;13.13;2.00;;;5.50;99.90;;;;;;5042162;28;20044;-79
2022/01/09 09:09:32;;;;;;;12.25;2.13;;;5.50;99.90;;;;;;5034575;28;20047;-79
2022/01/09 09:11:58;;;;;;;15.77;2.58;;;5.60;99.90;;;;;;5032398;28;20065;-79
2022/01/09 09:14:23;;;;;;;11.02;2.38;;;5.60;99.90;;;;;;5037477;28;20407;-79
2022/01/09 09:16:49;;;;;;;12.82;2.20;;;5.60;99.90;;;;;;5038398;28;20047;-78
2022/01/09 09:19:15;;;;;;;17.60;2.42;;;5.60;99.90;;;;;;5037613;28;20091;-79
2022/01/09 09:21:40;;;;;;;11.95;2.65;;;5.60;99.90;;;;;;5034274;28;20045;-79
2022/01/09 09:24:06;;;;;;;18.83;3.10;;;5.60;99.90;;;;;;5056843;28;20047;-78
2022/01/09 09:26:32;;;;;;;13.25;2.45;;;5.60;99.90;;;;;;5039152;28;20118;-79
2022/01/09 09:28:58;;;;;;;13.55;2.53;;;5.60;99.90;;;;;;5038433;28;20047;-79
2022/01/09 09:31:26;;;;;;;9.13;1.95;;;5.70;99.90;;;;;;5058670;28;20426;-79
2022/01/09 09:33:52;;;;;;;16.27;2.45;;;5.60;99.90;;;;;;5035821;28;20111;-78
2022/01/09 09:36:20;;;;;;;14.70;2.33;;;5.70;99.90;;;;;;5025185;28;20040;-79
2022/01/09 09:38:45;;;;;;;12.55;2.70;;;5.70;99.90;;;;;;5047649;28;20091;-79
2022/01/09 09:41:12;;;;;;;20.60;2.60;;;5.70;99.90;;;;;;5039792;28;20140;-78
2022/01/09 09:43:38;;;;;;;14.63;2.38;;;5.70;99.90;;;;;;5061998;28;20131;-79
2022/01/09 09:46:04;;;;;;;15.63;2.53;;;5.70;99.90;;;;;;5060935;28;20072;-79
2022/01/09 09:48:29;;;;;;;15.77;2.83;;;5.70;99.90;;;;;;5056870;28;20035;-79
2022/01/09 09:50:56;;;;;;;15.63;3.30;;;5.70;99.90;;;;;;5039900;28;20041;-79
2022/01/09 09:53:24;;;;;;;10.63;2.45;;;5.70;99.90;;;;;;5024874;28;20062;-79
2022/01/09 09:55:53;;;;;;;14.18;2.72;;;5.70;99.90;;;;;;5034239;28;20067;-79
2022/01/09 09:58:22;;;;;;;14.57;2.65;;;5.70;99.90;;;;;;5053322;28;20422;-78
2022/01/09 10:00:52;;;;;;;9.23;1.92;;;5.80;99.90;;;;;;5033048;28;20423;-79
2022/01/09 10:03:33;;;;;;;13.00;2.30;;;5.80;99.90;;;;;;5042948;28;20041;-79
2022/01/09 10:05:59;;;;;;;10.50;2.60;;;5.80;99.90;;;;;;5040260;28;20353;-79
2022/01/09 10:08:48;;;;;;;12.57;2.13;;;5.80;99.90;;;;;;5055653;28;20194;-79
2022/01/09 10:11:21;;;;;;;8.88;2.30;;;5.80;99.90;;;;;;5031230;28;20094;-79
2022/01/09 10:14:09;;;;;;;8.43;2.00;;;5.80;99.90;;;;;;5056035;28;20032;-79
2022/01/09 10:16:35;;;;;;;10.05;2.10;;;5.80;99.90;;;;;;5051906;28;20441;-79
2022/01/09 10:19:00;;;;;;;11.55;1.90;;;5.80;99.90;;;;;;5039259;28;20036;-79
2022/01/09 10:21:26;;;;;;;9.80;1.98;;;5.80;99.90;;;;;;5049473;28;20033;-78
2022/01/09 10:24:11;;;;;;;9.65;2.03;;;5.80;99.90;;;;;;5054145;28;20036;-78
2022/01/09 10:26:39;;;;;;;11.95;2.17;;;5.80;99.90;;;;;;5025868;28;20045;-79
2022/01/09 10:29:07;;;;;;;10.68;2.33;;;5.80;99.90;;;;;;5018581;28;20494;-79
2022/01/09 10:31:50;;;;;;;11.13;1.80;;;5.90;99.90;;;;;;5031549;28;20269;-79
2022/01/09 10:34:16;;;;;;;10.00;2.13;;;5.80;99.90;;;;;;5013723;28;20385;-79
2022/01/09 10:36:47;;;;;;;13.52;2.53;;;5.80;99.90;;;;;;5034734;28;20033;-79
2022/01/09 10:39:16;;;;;;;14.25;2.65;;;5.80;99.90;;;;;;5014652;28;20053;-78
2022/01/09 10:42:03;;;;;;;8.38;2.08;;;5.80;99.90;;;;;;4995081;28;20556;-79
2022/01/09 10:44:33;;;;;;;9.73;1.77;;;5.90;99.90;;;;;;5013902;28;20033;-79
2022/01/09 10:47:07;;;;;;;8.90;2.00;;;5.90;99.90;;;;;;5016523;28;20048;-79
2022/01/09 10:49:40;;;;;;;11.30;2.20;;;5.90;99.90;;;;;;5034756;28;20423;-78
2022/01/09 10:52:20;;;;;;;6.97;1.83;;;6.00;99.90;;;;;;5011974;28;20570;-79
2022/01/09 10:54:47;;;;;;;7.05;1.88;;;6.00;99.90;;;;;;5035299;28;20159;-78
2022/01/09 10:57:28;;;;;;;8.05;1.80;;;6.10;99.90;;;;;;4997270;28;20037;-78
2022/01/09 11:00:05;;;;;;;8.68;1.98;;;6.10;99.90;;;;;;5012609;28;21452;-78
2022/01/09 11:02:31;;;;;;;7.07;2.10;;;6.10;99.90;;;;;;5018169;28;20140;-79
2022/01/09 11:04:58;;;;;;;8.68;1.90;;;6.10;99.90;;;;;;5036703;28;20490;-78
2022/01/09 11:07:24;;;;;;;7.50;1.58;;;6.20;99.90;;;;;;5015725;28;20049;-79
2022/01/09 11:09:51;;;;;;;6.68;1.83;;;6.20;99.90;;;;;;5030910;28;20037;-79
2022/01/09 11:12:20;;;;;;;6.07;1.92;;;6.30;99.90;;;;;;5032809;28;20059;-79
2022/01/09 11:14:48;;;;;;;6.95;2.33;;;6.30;99.90;;;;;;5013274;28;20049;-78
2022/01/09 11:17:16;;;;;;;11.07;2.05;;;6.30;99.90;;;;;;5017643;28;20080;-79
2022/01/09 11:19:43;;;;;;;4.95;1.70;;;6.40;99.90;;;;;;5016724;28;20045;-78
2022/01/09 11:22:12;;;;;;;6.15;1.67;;;6.40;99.90;;;;;;5034410;28;20369;-79
2022/01/09 11:24:59;;;;;;;7.32;1.60;;;6.40;99.90;;;;;;5009129;28;20045;-79
2022/01/09 11:27:55;;;;;;;10.10;1.90;;;6.50;99.90;;;;;;5036043;28;20193;-79
2022/01/09 11:30:45;;;;;;;9.73;1.80;;;6.50;99.90;;;;;;5016654;28;20049;-79
2022/01/09 11:33:40;;;;;;;9.38;1.90;;;6.60;99.90;;;;;;5033628;28;20124;-79
2022/01/09 11:36:14;;;;;;;11.60;2.00;;;6.70;99.90;;;;;;5012238;28;20575;-78
2022/01/09 11:39:12;;;;;;;13.40;2.15;;;6.80;99.90;;;;;;5015083;28;20336;-79
2022/01/09 11:41:40;;;;;;;14.13;2.60;;;6.80;99.90;;;;;;5017314;28;20041;-79
2022/01/09 11:44:09;;;;;;;11.93;2.10;;;6.80;99.90;;;;;;5039107;28;20053;-79
2022/01/09 11:46:59;;;;;;;11.43;2.40;;;6.80;99.90;;;;;;5029178;28;20038;-79
2022/01/09 11:49:27;;;;;;;11.35;2.10;;;6.90;99.90;;;;;;5038313;28;20348;-79
2022/01/09 11:51:56;;;;;;;10.32;2.65;;;7.00;99.90;;;;;;5029046;28;20108;-79
2022/01/09 11:54:23;;;;;;;12.68;2.30;;;7.00;99.90;;;;;;5018669;28;20042;-79
2022/01/09 11:57:06;;;;;;;10.20;2.10;;;7.10;99.90;;;;;;5036847;28;20045;-79
2022/01/09 11:59:48;;;;;;;14.27;2.38;;;7.20;99.90;;;;;;5032989;28;20060;-77
2022/01/09 12:02:16;;;;;;;12.50;2.42;;;7.30;99.90;;;;;;5033676;28;20036;-79
2022/01/09 12:04:48;;;;;;;8.52;1.98;;;7.30;99.90;;;;;;5035970;28;20044;-79
2022/01/09 12:07:47;;;;;;;8.95;2.15;;;7.30;99.90;;;;;;5040721;28;20055;-79
2022/01/09 12:10:22;;;;;;;14.60;2.70;;;7.50;99.90;;;;;;5017625;28;20071;-79
2022/01/09 12:12:51;;;;;;;8.35;2.38;;;7.50;99.90;;;;;;5011527;28;20040;-79
2022/01/09 12:15:46;;;;;;;12.75;2.58;;;7.50;99.90;;;;;;5014422;28;20037;-80
2022/01/09 12:18:39;;;;;;;9.00;2.10;;;7.60;99.90;;;;;;5014818;28;20506;-81
2022/01/09 12:21:05;;;;;;;7.30;2.05;;;7.60;99.90;;;;;;5026376;28;20188;-80
2022/01/09 12:23:31;;;;;;;8.35;1.75;;;7.50;99.90;;;;;;5032594;28;20088;-81
2022/01/09 12:26:02;;;;;;;8.48;2.05;;;7.50;99.90;;;;;;5031184;28;20073;-80
2022/01/09 12:28:51;;;;;;;8.85;2.00;;;7.50;99.90;;;;;;5028479;28;20033;-81
2022/01/09 12:31:31;;;;;;;11.05;1.83;;;7.40;99.90;;;;;;5020833;28;20041;-81
2022/01/09 12:33:58;;;;;;;8.68;1.67;;;7.40;99.90;;;;;;5018895;28;20044;-81
2022/01/09 12:36:26;;;;;;;9.00;1.85;;;7.30;99.90;;;;;;5020047;28;20052;-81
2022/01/09 12:38:56;;;;;;;10.02;2.15;;;7.30;99.90;;;;;;5018162;28;20045;-80
2022/01/09 12:41:28;;;;;;;9.60;2.33;;;7.30;99.90;;;;;;5006087;28;20044;-81
2022/01/09 12:44:05;;;;;;;10.30;1.98;;;7.20;99.90;;;;;;4999978;28;20033;-80
2022/01/09 12:46:33;;;;;;;10.43;1.90;;;7.10;99.90;;;;;;5030133;28;20040;-80
2022/01/09 12:49:06;;;;;;;9.88;2.22;;;7.00;99.90;;;;;;5022428;28;20365;-81